createdAt,value
2023-05-02T00:01:44.470Z,1.20
2023-05-02T00:04:11.853Z,1.20
2023-05-02T00:06:39.190Z,1.23
2023-05-02T00:09:06.351Z,1.27
2023-05-02T00:11:33.502Z,1.30
2023-05-02T00:14:00.651Z,1.30
2023-05-02T00:16:27.888Z,1.20
2023-05-02T00:18:55.142Z,1.27
2023-05-02T00:21:22.319Z,1.20
2023-05-02T00:23:49.469Z,1.10
2023-05-02T00:26:16.605Z,1.30
2023-05-02T00:28:43.775Z,1.30
2023-05-02T00:31:10.955Z,1.20
2023-05-02T00:33:38.147Z,1.20
2023-05-02T00:36:05.337Z,1.00
2023-05-02T00:38:32.462Z,1.20
2023-05-02T00:40:59.628Z,1.20
2023-05-02T00:43:31.473Z,1.30
2023-05-02T00:45:59.227Z,1.17
2023-05-02T00:48:26.849Z,1.20
2023-05-02T00:50:54.008Z,1.30
2023-05-02T00:53:21.153Z,1.10
2023-05-02T00:55:49.547Z,1.30
2023-05-02T00:58:17.873Z,1.30
2023-05-02T01:00:51.366Z,1.30
2023-05-02T01:03:22.707Z,1.53
2023-05-02T01:05:56.317Z,1.40
2023-05-02T01:08:28.776Z,1.50
2023-05-02T01:11:01.968Z,1.50
2023-05-02T01:13:32.608Z,1.50
2023-05-02T01:16:00.697Z,1.67
2023-05-02T01:18:31.572Z,1.57
2023-05-02T01:21:01.330Z,1.70
2023-05-02T01:23:31.544Z,1.60
2023-05-02T01:26:21.332Z,1.60
2023-05-02T01:29:08.410Z,1.73
2023-05-02T01:31:36.877Z,1.80
2023-05-02T01:34:06.062Z,1.67
2023-05-02T01:36:34.296Z,1.50
2023-05-02T01:39:02.387Z,1.80
2023-05-02T01:41:30.826Z,1.80
2023-05-02T01:43:58.797Z,1.63
2023-05-02T01:46:28.274Z,1.80
2023-05-02T01:48:55.784Z,2.17
2023-05-02T01:51:24.422Z,1.90
2023-05-02T01:53:52.098Z,2.10
2023-05-02T01:56:20.144Z,1.80
2023-05-02T01:58:48.552Z,2.13
2023-05-02T02:01:16.527Z,1.90
2023-05-02T02:03:44.264Z,2.17
2023-05-02T02:06:12.130Z,2.07
2023-05-02T02:08:39.320Z,2.20
2023-05-02T02:11:10.454Z,2.10
2023-05-02T02:13:44.226Z,1.90
2023-05-02T02:16:13.451Z,2.20
2023-05-02T02:18:40.664Z,1.93
2023-05-02T02:21:09.975Z,2.20
2023-05-02T02:23:37.637Z,2.30
2023-05-02T02:26:05.908Z,2.33
2023-05-02T02:28:34.821Z,2.40
2023-05-02T02:31:02.106Z,2.40
2023-05-02T02:33:31.158Z,2.40
2023-05-02T02:36:17.008Z,2.40
2023-05-02T02:38:51.432Z,2.40
2023-05-02T02:41:23.376Z,2.50
2023-05-02T02:44:01.341Z,2.70
2023-05-02T02:46:31.669Z,2.20
2023-05-02T02:49:31.386Z,2.47
2023-05-02T02:52:07.779Z,2.50
2023-05-02T02:54:53.591Z,2.40
2023-05-02T02:57:40.442Z,2.37
2023-05-02T03:00:07.599Z,2.63
2023-05-02T03:02:37.062Z,2.60
2023-05-02T03:05:05.255Z,2.70
2023-05-02T03:07:32.509Z,2.63
2023-05-02T03:09:59.883Z,2.70
2023-05-02T03:12:27.286Z,2.37
2023-05-02T03:14:57.042Z,2.67
2023-05-02T03:17:26.246Z,2.77
2023-05-02T03:19:53.532Z,2.70
2023-05-02T03:22:20.711Z,2.60
2023-05-02T03:24:47.820Z,2.50
2023-05-02T03:27:15.041Z,2.70
2023-05-02T03:29:42.212Z,2.63
2023-05-02T03:32:09.542Z,3.00
2023-05-02T03:34:36.842Z,2.70
2023-05-02T03:37:03.988Z,2.70
2023-05-02T03:39:31.122Z,2.50
2023-05-02T03:41:58.249Z,2.47
2023-05-02T03:44:25.549Z,2.80
2023-05-02T03:46:52.721Z,2.50
2023-05-02T03:49:19.997Z,2.67
2023-05-02T03:51:47.144Z,2.60
2023-05-02T03:54:14.280Z,2.73
2023-05-02T03:56:42.942Z,2.90
2023-05-02T03:59:10.278Z,2.73
2023-05-02T04:01:37.408Z,2.90
2023-05-02T04:04:05.311Z,2.70
2023-05-02T04:06:32.705Z,2.40
2023-05-02T04:08:59.944Z,2.90
2023-05-02T04:11:27.728Z,2.73
2023-05-02T04:13:54.864Z,2.70
2023-05-02T04:16:22.506Z,2.60
2023-05-02T04:18:49.710Z,2.83
2023-05-02T04:21:16.852Z,2.70
2023-05-02T04:23:44.025Z,2.70
2023-05-02T04:26:11.320Z,2.67
2023-05-02T04:28:38.469Z,2.80
2023-05-02T04:31:05.826Z,2.80
2023-05-02T04:33:32.981Z,2.50
2023-05-02T04:36:00.595Z,3.30
2023-05-02T04:38:27.777Z,3.10
2023-05-02T04:40:55.138Z,2.60
2023-05-02T04:43:24.456Z,2.50
2023-05-02T04:45:52.202Z,2.70
2023-05-02T04:48:19.421Z,2.77
2023-05-02T04:50:47.097Z,2.60
2023-05-02T04:53:14.289Z,2.67
2023-05-02T04:55:43.047Z,2.80
2023-05-02T04:58:10.267Z,2.80
2023-05-02T05:00:37.429Z,2.50
2023-05-02T05:03:06.372Z,2.40
2023-05-02T05:05:34.197Z,2.43
2023-05-02T05:08:01.341Z,2.40
2023-05-02T05:10:28.462Z,2.70
2023-05-02T05:12:55.604Z,2.60
2023-05-02T05:15:24.033Z,2.83
2023-05-02T05:17:51.321Z,2.60
2023-05-02T05:20:18.593Z,2.70
2023-05-02T05:22:45.739Z,2.37
2023-05-02T05:25:13.153Z,2.43
2023-05-02T05:27:40.478Z,2.60
2023-05-02T05:30:09.001Z,2.60
2023-05-02T05:32:36.445Z,2.60
2023-05-02T05:35:04.570Z,2.60
2023-05-02T05:37:31.757Z,2.87
2023-05-02T05:39:59.122Z,2.80
2023-05-02T05:42:27.080Z,2.40
2023-05-02T05:44:54.252Z,2.30
2023-05-02T05:47:24.873Z,2.53
2023-05-02T05:49:55.334Z,2.60
2023-05-02T05:52:22.545Z,2.60
2023-05-02T05:54:49.671Z,2.43
2023-05-02T05:57:16.831Z,2.50
2023-05-02T05:59:44.376Z,2.40
2023-05-02T06:02:11.574Z,2.53
2023-05-02T06:04:38.782Z,2.50
2023-05-02T06:07:05.942Z,2.20
2023-05-02T06:09:33.155Z,2.30
2023-05-02T06:12:02.752Z,2.50
2023-05-02T06:14:29.964Z,2.67
2023-05-02T06:17:00.039Z,2.40
2023-05-02T06:19:27.290Z,2.30
2023-05-02T06:21:54.493Z,2.30
2023-05-02T06:24:21.653Z,2.43
2023-05-02T06:26:48.803Z,2.50
2023-05-02T06:29:15.965Z,2.40
2023-05-02T06:31:43.146Z,2.37
2023-05-02T06:34:10.310Z,2.33
2023-05-02T06:36:37.439Z,2.43
2023-05-02T06:39:04.618Z,2.50
2023-05-02T06:41:31.745Z,2.60
2023-05-02T06:43:58.878Z,2.50
2023-05-02T06:46:29.029Z,2.80
2023-05-02T06:48:56.428Z,2.50
2023-05-02T06:51:23.652Z,2.40
2023-05-02T06:53:50.994Z,2.50
2023-05-02T06:56:18.186Z,2.17
2023-05-02T06:58:45.360Z,2.33
2023-05-02T07:01:12.998Z,2.60
2023-05-02T07:03:40.176Z,2.40
2023-05-02T07:06:07.393Z,2.20
2023-05-02T07:08:34.543Z,2.10
2023-05-02T07:11:01.753Z,2.20
2023-05-02T07:13:29.122Z,2.30
2023-05-02T07:15:56.909Z,2.33
2023-05-02T07:18:24.052Z,1.90
2023-05-02T07:20:51.216Z,1.90
2023-05-02T07:23:18.456Z,2.20
2023-05-02T07:25:45.687Z,2.10
2023-05-02T07:28:12.790Z,1.80
2023-05-02T07:30:40.110Z,1.90
2023-05-02T07:33:07.522Z,2.10
2023-05-02T07:35:34.978Z,1.90
2023-05-02T07:38:02.117Z,1.97
2023-05-02T07:40:29.271Z,2.13
2023-05-02T07:42:56.427Z,2.00
2023-05-02T07:45:23.556Z,1.80
2023-05-02T07:47:51.066Z,1.80
2023-05-02T07:50:18.267Z,1.93
2023-05-02T07:52:45.544Z,1.73
2023-05-02T07:55:12.725Z,1.80
2023-05-02T07:57:39.865Z,1.70
2023-05-02T08:00:10.044Z,1.70
2023-05-02T08:02:37.448Z,1.70
2023-05-02T08:05:04.979Z,1.67
2023-05-02T08:07:33.656Z,1.57
2023-05-02T08:10:00.972Z,1.60
2023-05-02T08:12:28.552Z,1.60
2023-05-02T08:14:55.816Z,1.60
2023-05-02T08:17:23.111Z,1.37
2023-05-02T08:19:50.293Z,1.53
2023-05-02T08:22:17.416Z,1.70
2023-05-02T08:24:44.546Z,1.40
2023-05-02T08:27:11.670Z,1.60
2023-05-02T08:29:38.791Z,1.57
2023-05-02T08:32:06.296Z,1.53
2023-05-02T08:34:33.929Z,1.70
2023-05-02T08:37:01.185Z,1.40
2023-05-02T08:39:28.288Z,1.80
2023-05-02T08:41:55.509Z,1.33
2023-05-02T08:44:22.702Z,1.40
2023-05-02T08:46:50.834Z,1.30
2023-05-02T08:49:19.018Z,1.57
2023-05-02T08:51:46.942Z,1.40
2023-05-02T08:54:17.323Z,1.40
2023-05-02T08:56:44.763Z,1.33
2023-05-02T08:59:11.908Z,1.30
2023-05-02T09:01:42.228Z,1.40
2023-05-02T09:04:09.667Z,1.47
2023-05-02T09:06:37.247Z,1.40
2023-05-02T09:09:04.450Z,1.50
2023-05-02T09:11:31.627Z,1.40
2023-05-02T09:14:03.787Z,1.40
2023-05-02T09:16:33.936Z,1.30
2023-05-02T09:19:01.299Z,1.30
2023-05-02T09:21:37.276Z,1.30
2023-05-02T09:24:16.876Z,1.30
2023-05-02T09:26:56.853Z,1.40
2023-05-02T09:29:24.443Z,1.20
2023-05-02T09:31:56.202Z,1.47
2023-05-02T09:34:24.437Z,1.60
2023-05-02T09:36:53.981Z,1.30
2023-05-02T09:39:25.420Z,1.53
2023-05-02T09:41:53.176Z,1.40
2023-05-02T09:44:21.480Z,1.33
2023-05-02T09:46:49.968Z,1.30
2023-05-02T09:49:20.488Z,1.80
2023-05-02T09:51:48.485Z,1.20
2023-05-02T09:54:15.932Z,1.50
2023-05-02T09:56:53.306Z,1.40
2023-05-02T09:59:20.652Z,1.50
2023-05-02T10:01:55.350Z,1.27
2023-05-02T10:04:22.583Z,1.40
2023-05-02T10:06:51.852Z,1.20
2023-05-02T10:09:21.694Z,1.30
2023-05-02T10:11:52.219Z,1.20
2023-05-02T10:14:21.038Z,1.40
2023-05-02T10:16:55.125Z,1.30
2023-05-02T10:19:27.100Z,1.30
2023-05-02T10:21:54.412Z,1.17
2023-05-02T10:24:21.839Z,1.40
2023-05-02T10:26:49.102Z,1.40
2023-05-02T10:29:16.284Z,1.20
2023-05-02T10:31:44.886Z,1.23
2023-05-02T10:34:13.436Z,1.20
2023-05-02T10:36:41.789Z,1.27
2023-05-02T10:39:09.022Z,1.20
2023-05-02T10:41:37.048Z,1.30
2023-05-02T10:44:07.791Z,1.37
2023-05-02T10:46:40.545Z,1.37
2023-05-02T10:49:09.129Z,1.40
2023-05-02T10:51:37.423Z,1.30
2023-05-02T10:54:23.296Z,1.20
2023-05-02T10:57:03.990Z,1.20
2023-05-02T10:59:32.063Z,1.40
2023-05-02T11:01:59.296Z,1.40
2023-05-02T11:04:27.332Z,1.37
2023-05-02T11:06:57.302Z,1.20
2023-05-02T11:09:24.437Z,1.23
2023-05-02T11:11:55.425Z,1.27
2023-05-02T11:14:29.275Z,1.10
2023-05-02T11:17:05.532Z,1.20
2023-05-02T11:19:38.981Z,1.13
2023-05-02T11:22:21.765Z,1.20
2023-05-02T11:24:49.564Z,1.20
2023-05-02T11:27:33.381Z,1.40
2023-05-02T11:30:01.178Z,1.40
2023-05-02T11:32:50.035Z,1.40
2023-05-02T11:35:24.569Z,1.40
2023-05-02T11:38:04.937Z,1.30
2023-05-02T11:40:32.677Z,1.10
2023-05-02T11:43:00.873Z,1.20
2023-05-02T11:45:37.616Z,1.30
2023-05-02T11:48:08.545Z,1.40
2023-05-02T11:50:48.626Z,1.13
2023-05-02T11:53:18.837Z,1.20
2023-05-02T11:55:50.022Z,1.23
2023-05-02T11:58:18.725Z,1.30
2023-05-02T12:00:46.963Z,1.20
2023-05-02T12:03:22.402Z,1.23
2023-05-02T12:05:49.922Z,1.40
2023-05-02T12:08:21.179Z,1.50
2023-05-02T12:10:48.432Z,1.37
2023-05-02T12:13:15.635Z,1.43
2023-05-02T12:15:42.908Z,1.47
2023-05-02T12:18:10.243Z,1.40
2023-05-02T12:20:38.631Z,1.40
2023-05-02T12:23:10.171Z,1.37
2023-05-02T12:25:41.149Z,1.50
2023-05-02T12:28:08.859Z,1.37
2023-05-02T12:30:38.418Z,1.40
2023-05-02T12:33:06.402Z,1.30
2023-05-02T12:35:34.525Z,1.20
2023-05-02T12:38:10.879Z,1.10
2023-05-02T12:40:38.345Z,1.20
2023-05-02T12:43:08.100Z,1.40
2023-05-02T12:45:35.297Z,1.30
2023-05-02T12:48:03.038Z,1.20
2023-05-02T12:50:37.827Z,1.40
2023-05-02T12:53:06.249Z,1.20
2023-05-02T12:55:33.453Z,1.30
2023-05-02T12:58:01.245Z,1.15
2023-05-02T13:00:28.657Z,1.10
2023-05-02T13:02:56.226Z,1.60
2023-05-02T13:05:23.555Z,1.30
2023-05-02T13:07:50.914Z,1.38
2023-05-02T13:10:18.382Z,2.35
2023-05-02T13:12:47.040Z,1.30
2023-05-02T13:15:14.633Z,1.25
2023-05-02T13:17:42.211Z,1.30
2023-05-02T13:20:09.962Z,1.25
2023-05-02T13:22:37.812Z,1.20
2023-05-02T13:25:05.906Z,1.30
2023-05-02T13:27:34.235Z,1.40
2023-05-02T13:30:03.335Z,1.15
2023-05-02T13:32:32.902Z,1.05
2023-05-02T13:35:00.287Z,1.30
2023-05-02T13:37:27.996Z,1.30
2023-05-02T13:39:55.477Z,1.20
2023-05-02T13:42:23.016Z,1.15
2023-05-02T13:44:50.478Z,1.40
2023-05-02T13:47:17.719Z,1.17
2023-05-02T13:49:44.975Z,1.40
2023-05-02T13:52:12.122Z,1.30
2023-05-02T13:54:39.411Z,1.30
2023-05-02T13:57:06.554Z,1.02
2023-05-02T13:59:33.921Z,1.20
2023-05-02T14:02:01.306Z,1.70
2023-05-02T14:04:28.638Z,1.30
2023-05-02T14:06:56.027Z,1.40
2023-05-02T14:09:23.384Z,1.30
2023-05-02T14:11:50.652Z,1.40
2023-05-02T14:14:18.082Z,1.50
2023-05-02T14:16:45.267Z,1.40
2023-05-02T14:19:12.556Z,1.40
2023-05-02T14:21:39.856Z,1.20
2023-05-02T14:24:07.062Z,1.40
2023-05-02T14:26:35.362Z,1.40
2023-05-02T14:29:02.596Z,1.33
2023-05-02T14:31:30.015Z,1.30
2023-05-02T14:33:57.202Z,1.40
2023-05-02T14:36:24.418Z,1.10
2023-05-02T14:38:51.577Z,1.30
2023-05-02T14:41:19.293Z,1.37
2023-05-02T14:43:46.637Z,1.50
2023-05-02T14:46:13.837Z,1.30
2023-05-02T14:48:41.019Z,1.30
2023-05-02T14:51:08.199Z,1.13
2023-05-02T14:53:35.558Z,1.40
2023-05-02T14:56:03.091Z,1.77
2023-05-02T14:58:30.369Z,1.27
2023-05-02T15:00:57.500Z,1.30
2023-05-02T15:03:24.870Z,1.20
2023-05-02T15:05:52.220Z,1.50
2023-05-02T15:08:19.664Z,1.30
2023-05-02T15:10:46.839Z,1.43
2023-05-02T15:13:14.069Z,1.50
2023-05-02T15:15:41.225Z,1.53
2023-05-02T15:18:08.643Z,1.43
2023-05-02T15:20:36.375Z,1.43
2023-05-02T15:23:03.995Z,1.40
2023-05-02T15:25:31.671Z,1.10
2023-05-02T15:27:58.878Z,1.33
2023-05-02T15:30:26.090Z,1.50
2023-05-02T15:32:53.311Z,1.30
2023-05-02T15:35:20.721Z,1.50
2023-05-02T15:37:47.885Z,1.20
2023-05-02T15:40:15.024Z,1.30
2023-05-02T15:42:42.227Z,1.30
2023-05-02T15:45:13.375Z,1.20
2023-05-02T15:47:40.788Z,1.20
2023-05-02T15:50:08.545Z,1.30
2023-05-02T15:52:35.767Z,1.20
2023-05-02T15:55:03.201Z,1.40
2023-05-02T15:57:30.494Z,1.47
2023-05-02T15:59:57.718Z,1.10
2023-05-02T16:02:25.029Z,1.23
2023-05-02T16:04:52.177Z,1.00
2023-05-02T16:07:19.327Z,1.50
2023-05-02T16:09:46.494Z,1.10
2023-05-02T16:12:14.620Z,0.90
2023-05-02T16:14:41.753Z,1.30
2023-05-02T16:17:08.916Z,1.08
2023-05-02T16:19:36.093Z,1.10
2023-05-02T16:22:03.225Z,1.10
2023-05-02T16:24:30.399Z,1.10
2023-05-02T16:26:57.594Z,1.23
2023-05-02T16:29:24.895Z,0.82
2023-05-02T16:31:52.208Z,1.35
2023-05-02T16:34:19.395Z,1.00
2023-05-02T16:36:46.847Z,1.13
2023-05-02T16:39:14.047Z,1.30
2023-05-02T16:41:41.237Z,1.23
2023-05-02T16:44:08.353Z,1.10
2023-05-02T16:46:36.525Z,1.25
2023-05-02T16:49:03.714Z,1.20
2023-05-02T16:51:31.700Z,1.20
2023-05-02T16:53:58.873Z,1.20
2023-05-02T16:56:26.456Z,1.25
2023-05-02T16:58:53.665Z,1.10
2023-05-02T17:01:20.853Z,1.00
2023-05-02T17:03:48.092Z,1.30
2023-05-02T17:06:15.449Z,1.17
2023-05-02T17:08:42.614Z,1.30
2023-05-02T17:11:09.738Z,1.10
2023-05-02T17:13:36.899Z,1.10
2023-05-02T17:16:04.465Z,1.35
2023-05-02T17:18:31.705Z,1.20
2023-05-02T17:20:58.836Z,1.50
2023-05-02T17:23:26.336Z,1.38
2023-05-02T17:25:53.739Z,1.30
2023-05-02T17:28:21.027Z,1.38
2023-05-02T17:30:48.638Z,1.70
2023-05-02T17:33:15.917Z,1.73
2023-05-02T17:35:43.138Z,1.43
2023-05-02T17:38:10.311Z,1.50
2023-05-02T17:40:38.273Z,1.40
2023-05-02T17:43:05.726Z,1.40
2023-05-02T17:45:32.994Z,1.77
2023-05-02T17:48:02.036Z,1.40
2023-05-02T17:50:30.617Z,1.40
2023-05-02T17:52:58.644Z,1.40
2023-05-02T17:55:26.044Z,1.37
2023-05-02T17:57:53.217Z,1.50
2023-05-02T18:00:20.542Z,1.40
2023-05-02T18:02:47.842Z,1.40
2023-05-02T18:05:15.050Z,1.40
2023-05-02T18:07:42.222Z,1.50
2023-05-02T18:10:09.456Z,1.50
2023-05-02T18:12:36.683Z,1.70
2023-05-02T18:15:05.192Z,1.50
2023-05-02T18:17:32.973Z,1.70
2023-05-02T18:20:00.598Z,1.50
2023-05-02T18:22:27.996Z,1.50
2023-05-02T18:24:56.214Z,1.70
2023-05-02T18:27:23.408Z,1.93
2023-05-02T18:29:50.582Z,1.50
2023-05-02T18:32:17.720Z,1.90
2023-05-02T18:34:44.888Z,1.70
2023-05-02T18:37:12.433Z,1.50
2023-05-02T18:39:39.568Z,1.80
2023-05-02T18:42:08.244Z,1.77
2023-05-02T18:44:35.454Z,1.70
2023-05-02T18:47:02.724Z,1.60
2023-05-02T18:49:29.927Z,1.60
2023-05-02T18:51:57.050Z,1.90
2023-05-02T18:54:24.388Z,1.60
2023-05-02T18:56:51.681Z,1.30
2023-05-02T18:59:18.980Z,1.70
2023-05-02T19:01:47.265Z,2.00
2023-05-02T19:04:14.475Z,1.50
2023-05-02T19:06:42.010Z,1.67
2023-05-02T19:09:09.254Z,1.60
2023-05-02T19:11:36.680Z,1.37
2023-05-02T19:14:03.862Z,1.60
2023-05-02T19:16:31.569Z,1.40
2023-05-02T19:18:58.835Z,1.50
2023-05-02T19:21:26.144Z,1.70
2023-05-02T19:23:53.469Z,1.73
2023-05-02T19:26:20.770Z,1.90
2023-05-02T19:28:47.928Z,1.70
2023-05-02T19:31:19.354Z,1.93
2023-05-02T19:33:51.548Z,1.60
2023-05-02T19:36:19.817Z,1.80
2023-05-02T19:38:58.190Z,1.57
2023-05-02T19:41:26.114Z,1.60
2023-05-02T19:43:53.371Z,1.83
2023-05-02T19:46:20.605Z,1.73
2023-05-02T19:48:47.821Z,1.60
2023-05-02T19:51:15.134Z,1.50
2023-05-02T19:53:42.387Z,1.57
2023-05-02T19:56:10.430Z,1.87
2023-05-02T19:58:40.202Z,1.50
2023-05-02T20:01:07.399Z,1.67
2023-05-02T20:03:35.301Z,1.50
2023-05-02T20:06:02.742Z,1.80
2023-05-02T20:08:31.401Z,1.63
2023-05-02T20:10:58.610Z,1.53
2023-05-02T20:13:25.820Z,1.60
2023-05-02T20:15:54.147Z,1.53
2023-05-02T20:18:21.308Z,1.40
2023-05-02T20:20:48.479Z,1.50
2023-05-02T20:23:16.076Z,1.50
2023-05-02T20:25:43.862Z,1.60
2023-05-02T20:28:11.133Z,1.40
2023-05-02T20:30:42.043Z,1.50
2023-05-02T20:33:15.690Z,1.60
2023-05-02T20:35:44.069Z,1.60
2023-05-02T20:38:11.240Z,1.50
2023-05-02T20:40:40.160Z,1.60
2023-05-02T20:43:07.822Z,1.63
2023-05-02T20:45:35.171Z,1.80
2023-05-02T20:48:02.356Z,2.20
2023-05-02T20:50:29.536Z,1.80
2023-05-02T20:52:56.706Z,1.90
2023-05-02T20:55:23.950Z,2.07
2023-05-02T20:57:52.922Z,1.90
2023-05-02T21:00:22.417Z,2.10
2023-05-02T21:02:49.857Z,2.10
2023-05-02T21:05:17.294Z,2.20
2023-05-02T21:07:45.041Z,2.30
2023-05-02T21:10:12.349Z,2.50
2023-05-02T21:12:39.671Z,2.50
2023-05-02T21:15:07.698Z,2.40
2023-05-02T21:17:35.012Z,2.73
2023-05-02T21:20:02.664Z,2.70
2023-05-02T21:22:30.057Z,3.00
2023-05-02T21:24:57.176Z,2.70
2023-05-02T21:27:24.452Z,3.07
2023-05-02T21:29:51.647Z,3.57
2023-05-02T21:32:18.869Z,3.00
2023-05-02T21:34:46.067Z,3.80
2023-05-02T21:37:13.324Z,3.90
2023-05-02T21:39:40.585Z,3.80
2023-05-02T21:42:07.740Z,4.07
2023-05-02T21:44:35.031Z,3.53
2023-05-02T21:47:02.584Z,3.80
2023-05-02T21:49:31.146Z,3.70
2023-05-02T21:51:58.937Z,3.53
2023-05-02T21:54:26.293Z,4.37
2023-05-02T21:56:56.788Z,4.10
2023-05-02T21:59:23.912Z,4.00
2023-05-02T22:01:51.489Z,3.90
2023-05-02T22:04:20.093Z,4.03
2023-05-02T22:06:53.498Z,4.40
2023-05-02T22:09:20.898Z,4.10
2023-05-02T22:11:48.082Z,4.87
2023-05-02T22:14:15.329Z,4.37
2023-05-02T22:16:43.198Z,4.50
2023-05-02T22:19:16.013Z,4.47
2023-05-02T22:21:43.150Z,4.30
2023-05-02T22:24:10.448Z,4.30
2023-05-02T22:26:37.646Z,3.80
2023-05-02T22:29:04.900Z,4.57
2023-05-02T22:31:32.055Z,3.77
2023-05-02T22:33:59.179Z,4.07
2023-05-02T22:36:27.790Z,4.10
2023-05-02T22:38:55.114Z,3.60
2023-05-02T22:41:22.268Z,4.30
2023-05-02T22:43:49.412Z,3.97
2023-05-02T22:46:17.232Z,4.10
2023-05-02T22:48:44.397Z,4.47
2023-05-02T22:51:11.527Z,3.97
2023-05-02T22:53:38.742Z,3.90
2023-05-02T22:56:06.095Z,3.70
2023-05-02T22:58:33.398Z,3.80
2023-05-02T23:01:00.542Z,3.70
2023-05-02T23:03:27.722Z,3.40
2023-05-02T23:05:54.997Z,4.07
2023-05-02T23:08:22.108Z,3.93
2023-05-02T23:10:49.338Z,3.67
2023-05-02T23:13:16.459Z,3.70
2023-05-02T23:15:43.629Z,3.83
2023-05-02T23:18:10.888Z,4.47
2023-05-02T23:20:38.061Z,3.70
2023-05-02T23:23:05.717Z,4.33
2023-05-02T23:25:33.514Z,3.60
2023-05-02T23:28:00.673Z,3.67
2023-05-02T23:30:27.930Z,3.07
2023-05-02T23:32:55.427Z,3.53
2023-05-02T23:35:22.583Z,3.40
2023-05-02T23:37:49.880Z,2.80
2023-05-02T23:40:17.111Z,3.80
2023-05-02T23:42:44.300Z,2.77
2023-05-02T23:45:11.988Z,3.67
2023-05-02T23:47:39.199Z,3.90
2023-05-02T23:50:06.595Z,3.90
2023-05-02T23:52:34.074Z,3.53
2023-05-02T23:55:01.395Z,4.43
2023-05-02T23:57:30.483Z,4.00
2023-05-02T23:59:57.639Z,3.37
